Tuesday, September 2, 2014, 10:05 PM EDT
Back to Local

KCXY, Harrisburg Capital City

Location: New Cumberland, PA, United States Lat: 40.217
Local Time: 10:05 PM EDT ( 2:05 GMT) Lon: -76.85
Time Zone: US/Eastern Elev: 347 ft

Show me the last for .
Show Decoded

2014-09-02 20:56 METAR KCXY 030056Z AUTO 26006KT 10SM CLR 22/19 A2989 RMK AO2 SLP118 T02220194 =
2014-09-02 19:56 METAR KCXY 022356Z 26005KT 10SM CLR 23/19 A2984 RMK AO2 SLP105 60002 T02280194
                 10317 20228 50002 =
2014-09-02 18:56 METAR KCXY 022256Z VRB04KT 10SM FEW090 BKN120 23/20 A2984 RMK AO2 PK WND
                 20027/2212 LTG DSNT ALQDS RAB10E27 TSB02E26 SLP105 P0002 T02330200 =
2014-09-02 18:47 METAR KCXY 022247Z 21005KT 10SM CLR 23/19 A2984 RMK AO2 PK WND 20027/2212 LTG
                 DSNT ALQDS RAB10E27 TSB02E26 P0002 T02280194 =
2014-09-02 18:32 METAR KCXY 022232Z 21008KT 10SM VCTS FEW039 FEW055 SCT110 24/19 A2985 RMK AO2 PK
                 WND 20027/2212 LTG DSNT ALQDS RAB10E27 TSB02E26 P0002 T02390194 =
2014-09-02 17:56 METAR KCXY 022156Z 18012G17KT 10SM VCTS FEW090 BKN120 26/22 A2984 RMK AO2 LTG
                 DSNT S-W SLP104 T02610217 =
2014-09-02 17:14 METAR KCXY 022114Z 13010KT 10SM FEW049 27/21 A2984 RMK AO2 LTG DSNT E-SW
                 T02720206 =
2014-09-02 16:56 METAR KCXY 022056Z 20012G19KT 10SM VCTS SCT050 BKN065 BKN080 29/19 A2984 RMK AO2
                 LTG DSNT E-SW RAB20E31 TSB35E50 SLP102 P0000 60000 T02890189 56024 =
2014-09-02 16:41 METAR KCXY 022041Z 19008KT 10SM TS BKN055 OVC075 30/21 A2984 RMK AO2 LTG DSNT S
                 AND SW RAB20E31 TSB35 P0000 T03000206 =
2014-09-02 16:30 METAR KCXY 022030Z 20006KT 10SM VCTS -RA SCT050 BKN065 BKN080 31/21 A2985 RMK
                 AO2 LTG DSNT S AND SW RAB20 P0000 T03060211 =
2014-09-02 15:56 METAR KCXY 021956Z 23006KT 10SM SCT047 31/20 A2986 RMK AO2 LTG DSNT SW SLP108
                 T03110200 =
2014-09-02 14:56 METAR KCXY 021856Z 23008KT 10SM BKN080 31/19 A2988 RMK AO2 SLP118 T03110194 =
2014-09-02 13:56 METAR KCXY 021756Z 27006KT 10SM BKN080 31/20 A2991 RMK AO2 SLP126 T03060200
                 10306 20233 56020 =
2014-09-02 12:56 METAR KCXY 021656Z 23009G16KT 10SM FEW048 SCT060 31/20 A2993 RMK AO2 SLP132
                 T03060200 =
2014-09-02 11:56 METAR KCXY 021556Z 10SM SCT039 29/20 A2995 RMK AO2 SLP140 T02940200 =
2014-09-02 10:56 METAR KCXY 021456Z 25008KT 10SM BKN040 28/21 A2997 RMK AO2 SLP146 T02780206
                 53005 =
2014-09-02 09:56 METAR KCXY 021356Z 28004KT 10SM CLR 27/21 A2996 RMK AO2 SLP144 T02720211 =
2014-09-02 08:56 METAR KCXY 021256Z 00000KT 10SM FEW044 25/20 A2995 RMK AO2 SLP140 T02500200 =
2014-09-02 07:56 METAR KCXY 021156Z 27003KT 10SM CLR 23/21 A2995 RMK AO2 SLP142 T02330206 10250
                 20211 51011 =
2014-09-02 06:56 METAR KCXY 021056Z 24003KT 10SM CLR 22/21 A2995 RMK AO2 SLP140 T02170206 =
2014-09-02 05:56 METAR KCXY 020956Z AUTO 00000KT 10SM CLR 21/21 A2993 RMK AO2 SLP133 T02110206 =
2014-09-02 04:56 METAR KCXY 020856Z AUTO 00000KT 10SM CLR 22/21 A2992 RMK AO2 SLP130 T02170211
                 57005 =
2014-09-02 03:56 METAR KCXY 020756Z AUTO 29005KT 10SM CLR 23/22 A2993 RMK AO2 SLP133 T02330217 =
2014-09-02 01:56 METAR KCXY 020556Z AUTO 00000KT 10SM SCT075 25/22 A2994 RMK AO2 SLP136 T02500217
                 10267 20233 58007 =
2014-09-02 00:56 METAR KCXY 020456Z AUTO 00000KT 10SM FEW090 23/22 A2994 RMK AO2 SLP138 T02330217
                 403000206 =
2014-09-01 23:56 METAR KCXY 020356Z AUTO 00000KT 10SM CLR 25/22 A2995 RMK AO2 SLP142 T02500222 =
2014-09-01 22:56 METAR KCXY 020256Z AUTO 27003KT 10SM FEW070 BKN095 23/22 A2996 RMK AO2 SLP143
                 T02330217 50007 =

Support USWX by starting your Amazon purchase here.